sensor_id;sensor_type;location;lat;lon;timestamp;P1;durP1;ratioP1;P2;durP2;ratioP2
80272;SDS011;69574;45.328;9.598;2023-04-24T00:01:40;5.57;;;3.30;;
80272;SDS011;69574;45.328;9.598;2023-04-24T00:04:06;6.10;;;3.40;;
80272;SDS011;69574;45.328;9.598;2023-04-24T00:06:32;5.72;;;3.00;;
80272;SDS011;69574;45.328;9.598;2023-04-24T00:09:02;5.88;;;3.03;;
80272;SDS011;69574;45.328;9.598;2023-04-24T00:11:27;8.00;;;3.70;;
80272;SDS011;69574;45.328;9.598;2023-04-24T00:13:53;6.28;;;3.20;;
80272;SDS011;69574;45.328;9.598;2023-04-24T00:16:20;6.32;;;3.20;;
80272;SDS011;69574;45.328;9.598;2023-04-24T00:18:46;5.95;;;3.05;;
80272;SDS011;69574;45.328;9.598;2023-04-24T00:21:13;6.15;;;3.60;;
80272;SDS011;69574;45.328;9.598;2023-04-24T00:23:38;6.18;;;3.35;;
80272;SDS011;69574;45.328;9.598;2023-04-24T00:26:04;5.35;;;3.47;;
80272;SDS011;69574;45.328;9.598;2023-04-24T00:28:29;6.32;;;3.05;;
80272;SDS011;69574;45.328;9.598;2023-04-24T00:30:55;6.57;;;3.20;;
80272;SDS011;69574;45.328;9.598;2023-04-24T00:33:22;6.53;;;3.50;;
80272;SDS011;69574;45.328;9.598;2023-04-24T00:35:48;8.45;;;3.55;;
80272;SDS011;69574;45.328;9.598;2023-04-24T00:38:14;5.43;;;3.13;;
80272;SDS011;69574;45.328;9.598;2023-04-24T00:40:39;6.78;;;3.28;;
80272;SDS011;69574;45.328;9.598;2023-04-24T00:43:05;5.40;;;3.60;;
80272;SDS011;69574;45.328;9.598;2023-04-24T00:45:31;6.18;;;3.03;;
80272;SDS011;69574;45.328;9.598;2023-04-24T00:47:56;4.47;;;2.92;;
80272;SDS011;69574;45.328;9.598;2023-04-24T00:50:24;7.55;;;3.38;;
80272;SDS011;69574;45.328;9.598;2023-04-24T00:52:50;6.32;;;3.28;;
80272;SDS011;69574;45.328;9.598;2023-04-24T00:55:16;6.47;;;2.88;;
80272;SDS011;69574;45.328;9.598;2023-04-24T00:57:42;7.13;;;3.33;;
80272;SDS011;69574;45.328;9.598;2023-04-24T01:00:08;6.22;;;3.10;;
80272;SDS011;69574;45.328;9.598;2023-04-24T01:02:37;5.82;;;3.30;;
80272;SDS011;69574;45.328;9.598;2023-04-24T01:05:05;5.35;;;3.17;;
80272;SDS011;69574;45.328;9.598;2023-04-24T01:07:32;4.43;;;2.60;;
80272;SDS011;69574;45.328;9.598;2023-04-24T01:09:58;7.80;;;3.60;;
80272;SDS011;69574;45.328;9.598;2023-04-24T01:12:24;4.18;;;2.85;;
80272;SDS011;69574;45.328;9.598;2023-04-24T01:14:50;5.13;;;2.90;;
80272;SDS011;69574;45.328;9.598;2023-04-24T01:17:15;5.07;;;3.00;;
80272;SDS011;69574;45.328;9.598;2023-04-24T01:19:41;4.85;;;2.80;;
80272;SDS011;69574;45.328;9.598;2023-04-24T01:22:11;5.03;;;2.85;;
80272;SDS011;69574;45.328;9.598;2023-04-24T01:24:38;6.30;;;3.38;;
80272;SDS011;69574;45.328;9.598;2023-04-24T01:27:04;4.55;;;3.00;;
80272;SDS011;69574;45.328;9.598;2023-04-24T01:29:29;5.05;;;3.38;;
80272;SDS011;69574;45.328;9.598;2023-04-24T01:31:55;5.13;;;3.10;;
80272;SDS011;69574;45.328;9.598;2023-04-24T01:34:21;4.82;;;2.90;;
80272;SDS011;69574;45.328;9.598;2023-04-24T01:36:46;5.07;;;2.60;;
80272;SDS011;69574;45.328;9.598;2023-04-24T01:39:14;7.55;;;3.20;;
80272;SDS011;69574;45.328;9.598;2023-04-24T01:41:41;6.18;;;2.90;;
80272;SDS011;69574;45.328;9.598;2023-04-24T01:44:07;4.35;;;3.05;;
80272;SDS011;69574;45.328;9.598;2023-04-24T01:46:33;5.10;;;3.30;;
80272;SDS011;69574;45.328;9.598;2023-04-24T01:49:00;6.35;;;2.92;;
80272;SDS011;69574;45.328;9.598;2023-04-24T01:51:25;4.90;;;3.10;;
80272;SDS011;69574;45.328;9.598;2023-04-24T01:53:52;5.63;;;3.03;;
80272;SDS011;69574;45.328;9.598;2023-04-24T01:56:20;5.68;;;2.83;;
80272;SDS011;69574;45.328;9.598;2023-04-24T01:58:46;4.72;;;2.92;;
80272;SDS011;69574;45.328;9.598;2023-04-24T02:01:14;4.45;;;2.85;;
80272;SDS011;69574;45.328;9.598;2023-04-24T02:03:40;5.85;;;3.13;;
80272;SDS011;69574;45.328;9.598;2023-04-24T02:06:06;5.95;;;3.20;;
80272;SDS011;69574;45.328;9.598;2023-04-24T02:08:32;5.35;;;3.17;;
80272;SDS011;69574;45.328;9.598;2023-04-24T02:10:57;5.85;;;3.03;;
80272;SDS011;69574;45.328;9.598;2023-04-24T02:13:24;5.47;;;3.03;;
80272;SDS011;69574;45.328;9.598;2023-04-24T02:15:50;5.43;;;2.70;;
80272;SDS011;69574;45.328;9.598;2023-04-24T02:18:16;6.72;;;2.97;;
80272;SDS011;69574;45.328;9.598;2023-04-24T02:20:42;4.63;;;3.00;;
80272;SDS011;69574;45.328;9.598;2023-04-24T02:23:07;4.70;;;2.97;;
80272;SDS011;69574;45.328;9.598;2023-04-24T02:25:33;6.55;;;2.88;;
80272;SDS011;69574;45.328;9.598;2023-04-24T02:27:59;4.88;;;2.97;;
80272;SDS011;69574;45.328;9.598;2023-04-24T02:30:27;5.13;;;2.70;;
80272;SDS011;69574;45.328;9.598;2023-04-24T02:32:52;4.60;;;2.85;;
80272;SDS011;69574;45.328;9.598;2023-04-24T02:35:18;4.25;;;2.40;;
80272;SDS011;69574;45.328;9.598;2023-04-24T02:37:44;4.63;;;2.92;;
80272;SDS011;69574;45.328;9.598;2023-04-24T02:40:10;6.18;;;3.38;;
80272;SDS011;69574;45.328;9.598;2023-04-24T02:42:36;7.35;;;2.92;;
80272;SDS011;69574;45.328;9.598;2023-04-24T02:45:01;3.92;;;2.38;;
80272;SDS011;69574;45.328;9.598;2023-04-24T02:47:28;5.00;;;2.85;;
80272;SDS011;69574;45.328;9.598;2023-04-24T02:49:54;3.90;;;2.38;;
80272;SDS011;69574;45.328;9.598;2023-04-24T02:52:20;4.40;;;2.80;;
80272;SDS011;69574;45.328;9.598;2023-04-24T02:54:45;4.15;;;2.70;;
80272;SDS011;69574;45.328;9.598;2023-04-24T02:57:11;4.05;;;2.70;;
80272;SDS011;69574;45.328;9.598;2023-04-24T02:59:37;7.63;;;3.35;;
80272;SDS011;69574;45.328;9.598;2023-04-24T03:02:02;4.55;;;2.83;;
80272;SDS011;69574;45.328;9.598;2023-04-24T03:04:29;5.55;;;3.00;;
80272;SDS011;69574;45.328;9.598;2023-04-24T03:06:55;4.72;;;2.78;;
80272;SDS011;69574;45.328;9.598;2023-04-24T03:09:21;5.72;;;3.20;;
80272;SDS011;69574;45.328;9.598;2023-04-24T03:11:47;3.80;;;2.45;;
80272;SDS011;69574;45.328;9.598;2023-04-24T03:14:13;4.60;;;2.70;;
80272;SDS011;69574;45.328;9.598;2023-04-24T03:16:39;3.95;;;2.53;;
80272;SDS011;69574;45.328;9.598;2023-04-24T03:19:05;4.97;;;2.90;;
80272;SDS011;69574;45.328;9.598;2023-04-24T03:21:32;5.07;;;3.00;;
80272;SDS011;69574;45.328;9.598;2023-04-24T03:23:58;4.80;;;2.53;;
80272;SDS011;69574;45.328;9.598;2023-04-24T03:26:23;6.88;;;3.15;;
80272;SDS011;69574;45.328;9.598;2023-04-24T03:28:50;5.97;;;2.80;;
80272;SDS011;69574;45.328;9.598;2023-04-24T03:31:15;4.65;;;2.70;;
80272;SDS011;69574;45.328;9.598;2023-04-24T03:33:41;9.52;;;2.80;;
80272;SDS011;69574;45.328;9.598;2023-04-24T03:36:07;6.68;;;3.03;;
80272;SDS011;69574;45.328;9.598;2023-04-24T03:38:34;5.45;;;2.90;;
80272;SDS011;69574;45.328;9.598;2023-04-24T03:41:00;9.57;;;3.03;;
80272;SDS011;69574;45.328;9.598;2023-04-24T03:43:25;5.80;;;2.85;;
80272;SDS011;69574;45.328;9.598;2023-04-24T03:45:52;4.63;;;2.67;;
80272;SDS011;69574;45.328;9.598;2023-04-24T03:48:18;9.20;;;3.10;;
80272;SDS011;69574;45.328;9.598;2023-04-24T03:50:43;4.93;;;3.00;;
80272;SDS011;69574;45.328;9.598;2023-04-24T03:53:09;4.22;;;2.83;;
80272;SDS011;69574;45.328;9.598;2023-04-24T03:55:36;4.15;;;2.75;;
80272;SDS011;69574;45.328;9.598;2023-04-24T03:58:02;4.03;;;2.70;;
80272;SDS011;69574;45.328;9.598;2023-04-24T04:00:28;6.82;;;3.00;;
80272;SDS011;69574;45.328;9.598;2023-04-24T04:02:53;4.82;;;3.08;;
80272;SDS011;69574;45.328;9.598;2023-04-24T04:05:19;4.35;;;2.80;;
80272;SDS011;69574;45.328;9.598;2023-04-24T04:07:44;7.15;;;2.97;;
80272;SDS011;69574;45.328;9.598;2023-04-24T04:10:10;4.68;;;2.60;;
80272;SDS011;69574;45.328;9.598;2023-04-24T04:12:37;4.88;;;2.75;;
80272;SDS011;69574;45.328;9.598;2023-04-24T04:15:03;4.70;;;2.55;;
80272;SDS011;69574;45.328;9.598;2023-04-24T04:17:29;5.78;;;2.63;;
80272;SDS011;69574;45.328;9.598;2023-04-24T04:19:55;7.13;;;3.03;;
80272;SDS011;69574;45.328;9.598;2023-04-24T04:22:21;4.60;;;2.72;;
80272;SDS011;69574;45.328;9.598;2023-04-24T04:24:47;4.72;;;2.90;;
80272;SDS011;69574;45.328;9.598;2023-04-24T04:27:12;4.60;;;2.70;;
80272;SDS011;69574;45.328;9.598;2023-04-24T04:29:39;4.32;;;2.70;;
80272;SDS011;69574;45.328;9.598;2023-04-24T04:32:05;4.45;;;2.80;;
80272;SDS011;69574;45.328;9.598;2023-04-24T04:34:31;4.93;;;2.53;;
80272;SDS011;69574;45.328;9.598;2023-04-24T04:36:57;4.70;;;2.70;;
80272;SDS011;69574;45.328;9.598;2023-04-24T04:39:24;4.75;;;2.75;;
80272;SDS011;69574;45.328;9.598;2023-04-24T04:41:50;5.80;;;3.10;;
80272;SDS011;69574;45.328;9.598;2023-04-24T04:44:16;4.10;;;2.63;;
80272;SDS011;69574;45.328;9.598;2023-04-24T04:46:43;4.47;;;2.65;;
80272;SDS011;69574;45.328;9.598;2023-04-24T04:49:09;6.78;;;2.80;;
80272;SDS011;69574;45.328;9.598;2023-04-24T04:51:36;5.78;;;2.85;;
80272;SDS011;69574;45.328;9.598;2023-04-24T04:54:01;5.22;;;2.75;;
80272;SDS011;69574;45.328;9.598;2023-04-24T04:56:27;5.97;;;3.17;;
80272;SDS011;69574;45.328;9.598;2023-04-24T04:58:53;4.57;;;2.63;;
80272;SDS011;69574;45.328;9.598;2023-04-24T05:01:19;5.15;;;2.60;;
80272;SDS011;69574;45.328;9.598;2023-04-24T05:03:46;4.80;;;2.75;;
80272;SDS011;69574;45.328;9.598;2023-04-24T05:06:11;4.05;;;2.78;;
80272;SDS011;69574;45.328;9.598;2023-04-24T05:08:37;5.65;;;2.85;;
80272;SDS011;69574;45.328;9.598;2023-04-24T05:11:03;4.20;;;2.80;;
80272;SDS011;69574;45.328;9.598;2023-04-24T05:13:28;5.32;;;2.50;;
80272;SDS011;69574;45.328;9.598;2023-04-24T05:15:54;4.82;;;2.55;;
80272;SDS011;69574;45.328;9.598;2023-04-24T05:18:20;4.70;;;2.65;;
80272;SDS011;69574;45.328;9.598;2023-04-24T05:20:47;5.68;;;2.80;;
80272;SDS011;69574;45.328;9.598;2023-04-24T05:23:12;5.15;;;2.92;;
80272;SDS011;69574;45.328;9.598;2023-04-24T05:25:38;4.20;;;2.67;;
80272;SDS011;69574;45.328;9.598;2023-04-24T05:28:05;5.10;;;2.90;;
80272;SDS011;69574;45.328;9.598;2023-04-24T05:30:31;5.10;;;2.55;;
80272;SDS011;69574;45.328;9.598;2023-04-24T05:32:56;8.63;;;3.08;;
80272;SDS011;69574;45.328;9.598;2023-04-24T05:35:22;6.78;;;2.88;;
80272;SDS011;69574;45.328;9.598;2023-04-24T05:37:49;4.28;;;2.53;;
80272;SDS011;69574;45.328;9.598;2023-04-24T05:40:15;4.18;;;2.70;;
80272;SDS011;69574;45.328;9.598;2023-04-24T05:42:40;6.25;;;2.70;;
80272;SDS011;69574;45.328;9.598;2023-04-24T05:45:06;5.13;;;2.60;;
80272;SDS011;69574;45.328;9.598;2023-04-24T05:47:32;4.95;;;2.40;;
80272;SDS011;69574;45.328;9.598;2023-04-24T05:49:58;4.15;;;2.92;;
80272;SDS011;69574;45.328;9.598;2023-04-24T05:52:23;6.20;;;2.80;;
80272;SDS011;69574;45.328;9.598;2023-04-24T05:54:50;4.82;;;2.75;;
80272;SDS011;69574;45.328;9.598;2023-04-24T05:57:16;4.93;;;2.85;;
80272;SDS011;69574;45.328;9.598;2023-04-24T05:59:42;4.75;;;2.53;;
80272;SDS011;69574;45.328;9.598;2023-04-24T06:02:07;4.13;;;2.58;;
80272;SDS011;69574;45.328;9.598;2023-04-24T06:04:33;4.35;;;2.75;;
80272;SDS011;69574;45.328;9.598;2023-04-24T06:06:59;4.28;;;2.67;;
80272;SDS011;69574;45.328;9.598;2023-04-24T06:09:24;6.80;;;3.30;;
80272;SDS011;69574;45.328;9.598;2023-04-24T06:11:51;6.18;;;3.22;;
80272;SDS011;69574;45.328;9.598;2023-04-24T06:14:21;5.15;;;2.65;;
80272;SDS011;69574;45.328;9.598;2023-04-24T06:16:47;4.10;;;2.53;;
80272;SDS011;69574;45.328;9.598;2023-04-24T06:19:13;5.18;;;2.92;;
80272;SDS011;69574;45.328;9.598;2023-04-24T06:21:38;4.15;;;2.60;;
80272;SDS011;69574;45.328;9.598;2023-04-24T06:24:04;5.03;;;2.95;;
80272;SDS011;69574;45.328;9.598;2023-04-24T06:26:30;6.00;;;2.90;;
80272;SDS011;69574;45.328;9.598;2023-04-24T06:28:57;5.10;;;2.58;;
80272;SDS011;69574;45.328;9.598;2023-04-24T06:31:24;5.65;;;2.55;;
80272;SDS011;69574;45.328;9.598;2023-04-24T06:33:50;5.43;;;3.15;;
80272;SDS011;69574;45.328;9.598;2023-04-24T06:36:15;5.07;;;3.00;;
80272;SDS011;69574;45.328;9.598;2023-04-24T06:38:42;4.75;;;2.40;;
80272;SDS011;69574;45.328;9.598;2023-04-24T06:41:07;5.85;;;2.85;;
80272;SDS011;69574;45.328;9.598;2023-04-24T06:43:33;4.88;;;2.70;;
80272;SDS011;69574;45.328;9.598;2023-04-24T06:46:00;4.40;;;2.63;;
80272;SDS011;69574;45.328;9.598;2023-04-24T06:48:26;5.68;;;2.75;;
80272;SDS011;69574;45.328;9.598;2023-04-24T06:50:51;6.95;;;2.80;;
80272;SDS011;69574;45.328;9.598;2023-04-24T06:53:17;5.95;;;2.55;;
80272;SDS011;69574;45.328;9.598;2023-04-24T06:55:43;4.22;;;2.80;;
80272;SDS011;69574;45.328;9.598;2023-04-24T06:58:11;4.28;;;2.38;;
80272;SDS011;69574;45.328;9.598;2023-04-24T07:00:37;4.60;;;2.90;;
80272;SDS011;69574;45.328;9.598;2023-04-24T07:03:04;5.78;;;3.00;;
80272;SDS011;69574;45.328;9.598;2023-04-24T07:05:33;5.68;;;2.78;;
80272;SDS011;69574;45.328;9.598;2023-04-24T07:08:02;4.25;;;2.47;;
80272;SDS011;69574;45.328;9.598;2023-04-24T07:10:28;5.65;;;2.60;;
80272;SDS011;69574;45.328;9.598;2023-04-24T07:12:54;7.88;;;3.03;;
80272;SDS011;69574;45.328;9.598;2023-04-24T07:15:21;6.63;;;3.22;;
80272;SDS011;69574;45.328;9.598;2023-04-24T07:17:46;7.28;;;3.38;;
80272;SDS011;69574;45.328;9.598;2023-04-24T07:20:14;7.22;;;3.42;;
80272;SDS011;69574;45.328;9.598;2023-04-24T07:22:40;5.60;;;3.03;;
80272;SDS011;69574;45.328;9.598;2023-04-24T07:25:06;5.28;;;3.13;;
80272;SDS011;69574;45.328;9.598;2023-04-24T07:27:32;7.13;;;3.72;;
80272;SDS011;69574;45.328;9.598;2023-04-24T07:29:57;6.88;;;3.35;;
80272;SDS011;69574;45.328;9.598;2023-04-24T07:32:23;7.45;;;3.63;;
80272;SDS011;69574;45.328;9.598;2023-04-24T07:34:49;6.70;;;3.70;;
80272;SDS011;69574;45.328;9.598;2023-04-24T07:37:16;6.93;;;3.72;;
80272;SDS011;69574;45.328;9.598;2023-04-24T07:39:41;7.72;;;3.58;;
80272;SDS011;69574;45.328;9.598;2023-04-24T07:42:07;7.78;;;3.70;;
80272;SDS011;69574;45.328;9.598;2023-04-24T07:44:33;7.57;;;4.65;;
80272;SDS011;69574;45.328;9.598;2023-04-24T07:46:59;9.52;;;4.40;;
80272;SDS011;69574;45.328;9.598;2023-04-24T07:49:25;8.82;;;4.85;;
80272;SDS011;69574;45.328;9.598;2023-04-24T07:51:50;7.03;;;4.10;;
80272;SDS011;69574;45.328;9.598;2023-04-24T07:54:18;8.20;;;4.32;;
80272;SDS011;69574;45.328;9.598;2023-04-24T07:56:43;7.22;;;4.20;;
80272;SDS011;69574;45.328;9.598;2023-04-24T07:59:09;8.63;;;4.70;;
80272;SDS011;69574;45.328;9.598;2023-04-24T08:01:35;6.18;;;4.72;;
80272;SDS011;69574;45.328;9.598;2023-04-24T08:04:01;6.72;;;4.82;;
80272;SDS011;69574;45.328;9.598;2023-04-24T08:06:27;9.45;;;4.65;;
80272;SDS011;69574;45.328;9.598;2023-04-24T08:08:57;7.15;;;4.10;;
80272;SDS011;69574;45.328;9.598;2023-04-24T08:11:24;7.75;;;4.47;;
80272;SDS011;69574;45.328;9.598;2023-04-24T08:13:50;6.88;;;4.88;;
80272;SDS011;69574;45.328;9.598;2023-04-24T08:16:16;7.45;;;4.68;;
80272;SDS011;69574;45.328;9.598;2023-04-24T08:18:41;6.65;;;4.70;;
80272;SDS011;69574;45.328;9.598;2023-04-24T08:21:07;8.85;;;5.05;;
80272;SDS011;69574;45.328;9.598;2023-04-24T08:23:33;12.60;;;5.18;;
80272;SDS011;69574;45.328;9.598;2023-04-24T08:25:59;9.57;;;4.93;;
80272;SDS011;69574;45.328;9.598;2023-04-24T08:28:26;8.18;;;4.88;;
80272;SDS011;69574;45.328;9.598;2023-04-24T08:30:51;6.78;;;4.80;;
80272;SDS011;69574;45.328;9.598;2023-04-24T08:33:19;9.25;;;5.05;;
80272;SDS011;69574;45.328;9.598;2023-04-24T08:35:45;7.95;;;4.82;;
80272;SDS011;69574;45.328;9.598;2023-04-24T08:38:11;9.50;;;4.95;;
80272;SDS011;69574;45.328;9.598;2023-04-24T08:40:36;8.80;;;5.13;;
80272;SDS011;69574;45.328;9.598;2023-04-24T08:43:02;8.13;;;4.97;;
80272;SDS011;69574;45.328;9.598;2023-04-24T08:45:30;11.15;;;5.32;;
80272;SDS011;69574;45.328;9.598;2023-04-24T08:47:55;7.53;;;4.80;;
80272;SDS011;69574;45.328;9.598;2023-04-24T08:50:23;7.70;;;4.95;;
80272;SDS011;69574;45.328;9.598;2023-04-24T08:52:49;8.50;;;5.30;;
80272;SDS011;69574;45.328;9.598;2023-04-24T08:55:15;6.57;;;4.97;;
80272;SDS011;69574;45.328;9.598;2023-04-24T08:57:43;9.70;;;5.63;;
80272;SDS011;69574;45.328;9.598;2023-04-24T09:00:10;10.13;;;5.28;;
80272;SDS011;69574;45.328;9.598;2023-04-24T09:02:37;7.88;;;4.70;;
80272;SDS011;69574;45.328;9.598;2023-04-24T09:05:05;7.85;;;4.97;;
80272;SDS011;69574;45.328;9.598;2023-04-24T09:07:31;9.23;;;5.18;;
80272;SDS011;69574;45.328;9.598;2023-04-24T09:09:59;10.50;;;5.35;;
80272;SDS011;69574;45.328;9.598;2023-04-24T09:12:24;8.38;;;5.30;;
80272;SDS011;69574;45.328;9.598;2023-04-24T09:14:50;9.13;;;5.97;;
80272;SDS011;69574;45.328;9.598;2023-04-24T09:17:16;11.68;;;6.32;;
80272;SDS011;69574;45.328;9.598;2023-04-24T09:19:43;8.88;;;5.78;;
80272;SDS011;69574;45.328;9.598;2023-04-24T09:22:09;9.10;;;5.70;;
80272;SDS011;69574;45.328;9.598;2023-04-24T09:24:35;8.65;;;5.70;;
80272;SDS011;69574;45.328;9.598;2023-04-24T09:27:01;9.15;;;5.80;;
80272;SDS011;69574;45.328;9.598;2023-04-24T09:29:26;8.82;;;5.65;;
80272;SDS011;69574;45.328;9.598;2023-04-24T09:31:53;10.27;;;5.63;;
80272;SDS011;69574;45.328;9.598;2023-04-24T09:34:20;10.90;;;6.28;;
80272;SDS011;69574;45.328;9.598;2023-04-24T09:36:48;7.88;;;5.90;;
80272;SDS011;69574;45.328;9.598;2023-04-24T09:39:14;8.27;;;5.70;;
80272;SDS011;69574;45.328;9.598;2023-04-24T09:41:43;9.50;;;5.97;;
80272;SDS011;69574;45.328;9.598;2023-04-24T09:44:11;9.70;;;5.55;;
80272;SDS011;69574;45.328;9.598;2023-04-24T09:46:36;8.27;;;5.80;;
80272;SDS011;69574;45.328;9.598;2023-04-24T09:49:07;11.85;;;6.80;;
80272;SDS011;69574;45.328;9.598;2023-04-24T09:51:34;11.68;;;6.00;;
80272;SDS011;69574;45.328;9.598;2023-04-24T09:54:03;11.63;;;6.95;;
80272;SDS011;69574;45.328;9.598;2023-04-24T09:56:29;8.73;;;5.97;;
80272;SDS011;69574;45.328;9.598;2023-04-24T09:59:03;11.63;;;7.25;;
80272;SDS011;69574;45.328;9.598;2023-04-24T10:01:30;10.07;;;7.07;;
80272;SDS011;69574;45.328;9.598;2023-04-24T10:03:55;8.98;;;7.35;;
80272;SDS011;69574;45.328;9.598;2023-04-24T10:06:21;10.43;;;7.35;;
80272;SDS011;69574;45.328;9.598;2023-04-24T10:08:47;11.45;;;7.55;;
80272;SDS011;69574;45.328;9.598;2023-04-24T10:11:14;15.55;;;7.88;;
80272;SDS011;69574;45.328;9.598;2023-04-24T10:13:40;10.85;;;6.68;;
80272;SDS011;69574;45.328;9.598;2023-04-24T10:16:06;12.27;;;7.75;;
80272;SDS011;69574;45.328;9.598;2023-04-24T10:18:32;11.35;;;7.72;;
80272;SDS011;69574;45.328;9.598;2023-04-24T10:20:59;9.20;;;7.57;;
80272;SDS011;69574;45.328;9.598;2023-04-24T10:23:25;10.45;;;7.30;;
80272;SDS011;69574;45.328;9.598;2023-04-24T10:25:51;9.43;;;7.05;;
80272;SDS011;69574;45.328;9.598;2023-04-24T10:28:19;10.85;;;8.07;;
80272;SDS011;69574;45.328;9.598;2023-04-24T10:30:46;10.00;;;7.80;;
80272;SDS011;69574;45.328;9.598;2023-04-24T10:33:12;11.45;;;7.63;;
80272;SDS011;69574;45.328;9.598;2023-04-24T10:38:05;11.03;;;7.60;;
80272;SDS011;69574;45.328;9.598;2023-04-24T10:40:32;11.38;;;7.93;;
80272;SDS011;69574;45.328;9.598;2023-04-24T10:43:01;11.63;;;7.65;;
80272;SDS011;69574;45.328;9.598;2023-04-24T10:45:28;10.45;;;7.60;;
80272;SDS011;69574;45.328;9.598;2023-04-24T10:47:57;10.45;;;8.40;;
80272;SDS011;69574;45.328;9.598;2023-04-24T10:50:25;11.68;;;8.10;;
80272;SDS011;69574;45.328;9.598;2023-04-24T10:52:51;10.95;;;8.43;;
80272;SDS011;69574;45.328;9.598;2023-04-24T10:58:00;11.43;;;8.13;;
80272;SDS011;69574;45.328;9.598;2023-04-24T11:00:26;9.55;;;7.32;;
80272;SDS011;69574;45.328;9.598;2023-04-24T11:02:54;8.45;;;6.50;;
80272;SDS011;69574;45.328;9.598;2023-04-24T11:05:21;8.93;;;6.65;;
80272;SDS011;69574;45.328;9.598;2023-04-24T11:10:31;7.70;;;5.97;;
80272;SDS011;69574;45.328;9.598;2023-04-24T11:12:56;8.05;;;5.90;;
80272;SDS011;69574;45.328;9.598;2023-04-24T11:15:22;7.15;;;5.78;;
80272;SDS011;69574;45.328;9.598;2023-04-24T11:17:48;9.75;;;6.07;;
80272;SDS011;69574;45.328;9.598;2023-04-24T11:20:17;7.35;;;5.40;;
80272;SDS011;69574;45.328;9.598;2023-04-24T11:22:43;10.02;;;6.22;;
80272;SDS011;69574;45.328;9.598;2023-04-24T11:25:09;7.68;;;6.05;;
80272;SDS011;69574;45.328;9.598;2023-04-24T11:27:38;7.18;;;5.35;;
80272;SDS011;69574;45.328;9.598;2023-04-24T11:30:05;6.90;;;5.25;;
80272;SDS011;69574;45.328;9.598;2023-04-24T11:32:34;8.02;;;5.30;;
80272;SDS011;69574;45.328;9.598;2023-04-24T11:35:03;8.57;;;5.30;;
80272;SDS011;69574;45.328;9.598;2023-04-24T11:37:35;6.60;;;4.93;;
80272;SDS011;69574;45.328;9.598;2023-04-24T11:40:01;7.30;;;4.82;;
80272;SDS011;69574;45.328;9.598;2023-04-24T11:42:27;7.05;;;4.63;;
80272;SDS011;69574;45.328;9.598;2023-04-24T11:44:53;5.90;;;4.13;;
80272;SDS011;69574;45.328;9.598;2023-04-24T11:47:27;7.10;;;4.38;;
80272;SDS011;69574;45.328;9.598;2023-04-24T11:49:52;6.10;;;4.35;;
80272;SDS011;69574;45.328;9.598;2023-04-24T11:52:18;6.68;;;4.57;;
80272;SDS011;69574;45.328;9.598;2023-04-24T11:54:49;6.32;;;4.47;;
80272;SDS011;69574;45.328;9.598;2023-04-24T11:57:15;7.25;;;4.53;;
80272;SDS011;69574;45.328;9.598;2023-04-24T11:59:41;6.93;;;4.32;;
80272;SDS011;69574;45.328;9.598;2023-04-24T12:02:06;6.10;;;4.30;;
80272;SDS011;69574;45.328;9.598;2023-04-24T12:04:38;8.60;;;4.40;;
80272;SDS011;69574;45.328;9.598;2023-04-24T12:09:39;6.28;;;3.85;;
80272;SDS011;69574;45.328;9.598;2023-04-24T12:12:07;7.00;;;4.07;;
80272;SDS011;69574;45.328;9.598;2023-04-24T12:14:33;8.30;;;4.05;;
80272;SDS011;69574;45.328;9.598;2023-04-24T12:17:06;5.70;;;3.70;;
80272;SDS011;69574;45.328;9.598;2023-04-24T12:19:32;6.30;;;3.75;;
80272;SDS011;69574;45.328;9.598;2023-04-24T12:22:01;6.18;;;4.10;;
80272;SDS011;69574;45.328;9.598;2023-04-24T12:24:27;5.75;;;3.42;;
80272;SDS011;69574;45.328;9.598;2023-04-24T12:26:52;6.18;;;3.80;;
80272;SDS011;69574;45.328;9.598;2023-04-24T12:29:21;5.78;;;3.70;;
80272;SDS011;69574;45.328;9.598;2023-04-24T12:31:46;6.10;;;3.67;;
80272;SDS011;69574;45.328;9.598;2023-04-24T12:34:17;5.15;;;3.60;;
80272;SDS011;69574;45.328;9.598;2023-04-24T12:36:42;6.07;;;3.05;;
80272;SDS011;69574;45.328;9.598;2023-04-24T12:39:14;5.93;;;3.80;;
80272;SDS011;69574;45.328;9.598;2023-04-24T12:41:48;5.35;;;3.70;;
80272;SDS011;69574;45.328;9.598;2023-04-24T12:44:14;4.72;;;3.35;;
80272;SDS011;69574;45.328;9.598;2023-04-24T12:46:42;5.80;;;3.65;;
80272;SDS011;69574;45.328;9.598;2023-04-24T12:49:07;6.20;;;3.55;;
80272;SDS011;69574;45.328;9.598;2023-04-24T12:51:33;6.35;;;2.95;;
80272;SDS011;69574;45.328;9.598;2023-04-24T12:53:59;5.22;;;3.10;;
80272;SDS011;69574;45.328;9.598;2023-04-24T12:56:24;7.13;;;3.20;;
80272;SDS011;69574;45.328;9.598;2023-04-24T12:58:50;5.22;;;2.80;;
80272;SDS011;69574;45.328;9.598;2023-04-24T13:03:44;5.00;;;2.95;;
80272;SDS011;69574;45.328;9.598;2023-04-24T13:06:10;3.85;;;2.53;;
80272;SDS011;69574;45.328;9.598;2023-04-24T13:08:35;4.05;;;2.53;;
80272;SDS011;69574;45.328;9.598;2023-04-24T13:11:01;4.05;;;2.50;;
80272;SDS011;69574;45.328;9.598;2023-04-24T13:13:26;4.03;;;2.67;;
80272;SDS011;69574;45.328;9.598;2023-04-24T13:15:52;4.63;;;2.60;;
80272;SDS011;69574;45.328;9.598;2023-04-24T13:18:17;3.40;;;2.13;;
80272;SDS011;69574;45.328;9.598;2023-04-24T13:20:45;3.75;;;2.45;;
80272;SDS011;69574;45.328;9.598;2023-04-24T13:23:12;4.20;;;2.67;;
80272;SDS011;69574;45.328;9.598;2023-04-24T13:25:38;4.88;;;2.38;;
80272;SDS011;69574;45.328;9.598;2023-04-24T13:28:04;3.80;;;2.47;;
80272;SDS011;69574;45.328;9.598;2023-04-24T13:30:30;5.10;;;2.35;;
80272;SDS011;69574;45.328;9.598;2023-04-24T13:32:56;5.38;;;2.40;;
80272;SDS011;69574;45.328;9.598;2023-04-24T13:35:22;4.00;;;2.35;;
80272;SDS011;69574;45.328;9.598;2023-04-24T13:37:49;3.70;;;2.20;;
80272;SDS011;69574;45.328;9.598;2023-04-24T13:40:14;4.38;;;2.33;;
80272;SDS011;69574;45.328;9.598;2023-04-24T13:42:40;4.85;;;2.65;;
80272;SDS011;69574;45.328;9.598;2023-04-24T13:45:06;4.00;;;2.03;;
80272;SDS011;69574;45.328;9.598;2023-04-24T13:47:32;3.53;;;1.90;;
80272;SDS011;69574;45.328;9.598;2023-04-24T13:49:57;3.60;;;2.13;;
80272;SDS011;69574;45.328;9.598;2023-04-24T13:52:23;4.05;;;2.30;;
80272;SDS011;69574;45.328;9.598;2023-04-24T13:54:50;3.30;;;2.00;;
80272;SDS011;69574;45.328;9.598;2023-04-24T13:57:15;4.25;;;2.10;;
80272;SDS011;69574;45.328;9.598;2023-04-24T13:59:41;3.25;;;2.05;;
80272;SDS011;69574;45.328;9.598;2023-04-24T14:02:07;2.80;;;1.60;;
80272;SDS011;69574;45.328;9.598;2023-04-24T14:04:33;3.53;;;1.95;;
80272;SDS011;69574;45.328;9.598;2023-04-24T14:06:58;3.92;;;2.00;;
80272;SDS011;69574;45.328;9.598;2023-04-24T14:09:24;3.45;;;1.98;;
80272;SDS011;69574;45.328;9.598;2023-04-24T14:11:50;3.78;;;1.80;;
80272;SDS011;69574;45.328;9.598;2023-04-24T14:14:16;3.53;;;1.70;;
80272;SDS011;69574;45.328;9.598;2023-04-24T14:16:42;3.10;;;1.80;;
80272;SDS011;69574;45.328;9.598;2023-04-24T14:19:07;3.50;;;1.90;;
80272;SDS011;69574;45.328;9.598;2023-04-24T14:21:33;3.58;;;1.83;;
80272;SDS011;69574;45.328;9.598;2023-04-24T14:23:58;3.78;;;1.80;;
80272;SDS011;69574;45.328;9.598;2023-04-24T14:26:24;3.40;;;1.63;;
80272;SDS011;69574;45.328;9.598;2023-04-24T14:28:51;2.92;;;1.40;;
80272;SDS011;69574;45.328;9.598;2023-04-24T14:31:18;3.30;;;1.77;;
80272;SDS011;69574;45.328;9.598;2023-04-24T14:33:43;3.10;;;1.70;;
80272;SDS011;69574;45.328;9.598;2023-04-24T14:36:09;3.70;;;1.67;;
80272;SDS011;69574;45.328;9.598;2023-04-24T14:38:34;2.75;;;1.58;;
80272;SDS011;69574;45.328;9.598;2023-04-24T14:41:00;3.03;;;1.60;;
80272;SDS011;69574;45.328;9.598;2023-04-24T14:43:26;3.30;;;1.50;;
80272;SDS011;69574;45.328;9.598;2023-04-24T14:45:53;2.65;;;1.45;;
80272;SDS011;69574;45.328;9.598;2023-04-24T14:48:19;2.78;;;1.48;;
80272;SDS011;69574;45.328;9.598;2023-04-24T14:50:44;2.67;;;1.50;;
80272;SDS011;69574;45.328;9.598;2023-04-24T14:53:10;2.50;;;1.27;;